createdAt,value
2023-04-27T00:01:44.821Z,7.56
2023-04-27T00:04:14.525Z,7.51
2023-04-27T00:06:44.524Z,7.45
2023-04-27T00:09:11.872Z,7.44
2023-04-27T00:11:39.053Z,7.53
2023-04-27T00:14:06.406Z,7.48
2023-04-27T00:16:33.653Z,7.42
2023-04-27T00:19:01.192Z,7.35
2023-04-27T00:21:28.756Z,7.34
2023-04-27T00:23:56.092Z,7.27
2023-04-27T00:26:23.408Z,7.34
2023-04-27T00:28:53.208Z,7.32
2023-04-27T00:31:21.016Z,7.20
2023-04-27T00:33:49.469Z,7.16
2023-04-27T00:36:17.313Z,7.18
2023-04-27T00:38:44.510Z,7.12
2023-04-27T00:41:11.768Z,7.15
2023-04-27T00:43:44.037Z,7.11
2023-04-27T00:46:13.295Z,7.11
2023-04-27T00:48:41.639Z,7.13
2023-04-27T00:51:09.687Z,7.08
2023-04-27T00:53:37.178Z,7.03
2023-04-27T00:56:08.015Z,7.08
2023-04-27T00:58:35.410Z,7.05
2023-04-27T01:01:04.288Z,7.01
2023-04-27T01:03:32.609Z,6.97
2023-04-27T01:06:02.372Z,6.88
2023-04-27T01:08:30.153Z,6.97
2023-04-27T01:10:57.435Z,6.88
2023-04-27T01:13:24.907Z,6.90
2023-04-27T01:15:52.268Z,6.89
2023-04-27T01:18:19.669Z,6.80
2023-04-27T01:20:49.295Z,6.81
2023-04-27T01:23:17.359Z,6.78
2023-04-27T01:25:44.939Z,6.82
2023-04-27T01:28:12.905Z,6.77
2023-04-27T01:30:39.979Z,6.67
2023-04-27T01:33:06.820Z,6.70
2023-04-27T01:35:34.066Z,6.73
2023-04-27T01:38:01.720Z,6.73
2023-04-27T01:40:29.592Z,6.68
2023-04-27T01:43:00.388Z,6.66
2023-04-27T01:45:29.324Z,6.66
2023-04-27T01:47:56.817Z,6.63
2023-04-27T01:50:23.908Z,6.64
2023-04-27T01:52:50.985Z,6.64
2023-04-27T01:55:18.397Z,6.66
2023-04-27T01:57:45.941Z,6.66
2023-04-27T02:00:15.089Z,6.59
2023-04-27T02:02:51.370Z,6.57
2023-04-27T02:05:21.112Z,6.59
2023-04-27T02:07:51.397Z,6.53
2023-04-27T02:10:22.627Z,6.51
2023-04-27T02:12:49.937Z,6.57
2023-04-27T02:15:17.338Z,6.56
2023-04-27T02:17:45.835Z,6.53
2023-04-27T02:20:13.598Z,6.52
2023-04-27T02:22:45.089Z,6.48
2023-04-27T02:25:13.746Z,6.49
2023-04-27T02:27:44.065Z,6.47
2023-04-27T02:30:13.322Z,6.51
2023-04-27T02:32:42.349Z,6.55
2023-04-27T02:35:10.765Z,6.59
2023-04-27T02:37:40.663Z,6.50
2023-04-27T02:40:09.849Z,6.53
2023-04-27T02:42:41.022Z,6.56
2023-04-27T02:45:12.647Z,6.60
2023-04-27T02:47:41.876Z,6.60
2023-04-27T02:50:10.378Z,6.58
2023-04-27T02:52:41.164Z,6.62
2023-04-27T02:55:09.007Z,6.60
2023-04-27T02:57:37.158Z,6.64
2023-04-27T03:00:09.826Z,6.63
2023-04-27T03:02:37.236Z,6.60
2023-04-27T03:05:08.323Z,6.60
2023-04-27T03:07:37.321Z,6.60
2023-04-27T03:10:07.143Z,6.64
2023-04-27T03:12:35.271Z,6.57
2023-04-27T03:15:05.135Z,6.62
2023-04-27T03:17:35.567Z,6.65
2023-04-27T03:20:09.337Z,6.63
2023-04-27T03:22:39.087Z,6.68
2023-04-27T03:25:08.817Z,6.71
2023-04-27T03:27:36.509Z,6.73
2023-04-27T03:31:01.203Z,6.77
2023-04-27T03:33:31.211Z,6.74
2023-04-27T03:35:59.869Z,6.78
2023-04-27T03:38:28.949Z,6.87
2023-04-27T03:40:57.380Z,6.91
2023-04-27T03:43:27.396Z,6.96
2023-04-27T03:45:55.953Z,6.96
2023-04-27T03:48:23.342Z,7.03
2023-04-27T03:50:53.269Z,7.09
2023-04-27T03:53:21.664Z,7.09
2023-04-27T03:55:51.913Z,7.17
2023-04-27T03:58:20.699Z,7.24
2023-04-27T04:01:14.284Z,7.29
2023-04-27T04:03:43.455Z,7.31
2023-04-27T04:06:12.415Z,7.37
2023-04-27T04:08:40.198Z,7.33
2023-04-27T04:11:08.215Z,7.43
2023-04-27T04:13:38.761Z,7.45
2023-04-27T04:16:10.179Z,7.45
2023-04-27T04:18:41.305Z,7.47
2023-04-27T04:21:14.071Z,7.42
2023-04-27T04:23:41.521Z,7.44
2023-04-27T04:26:10.062Z,7.41
2023-04-27T04:28:38.710Z,7.41
2023-04-27T04:31:10.165Z,7.44
2023-04-27T04:33:37.869Z,7.43
2023-04-27T04:36:07.034Z,7.45
2023-04-27T04:38:38.390Z,7.39
2023-04-27T04:41:07.862Z,7.48
2023-04-27T04:43:35.160Z,7.52
2023-04-27T04:46:07.098Z,7.56
2023-04-27T04:48:35.017Z,7.62
2023-04-27T04:51:04.298Z,7.72
2023-04-27T04:53:33.239Z,7.75
2023-04-27T04:56:14.530Z,7.82
2023-04-27T04:58:41.717Z,7.90
2023-04-27T05:01:12.193Z,7.99
2023-04-27T05:03:39.658Z,8.05
2023-04-27T05:06:11.785Z,8.13
2023-04-27T05:08:39.833Z,8.14
2023-04-27T05:11:07.524Z,8.25
2023-04-27T05:13:36.221Z,8.30
2023-04-27T05:16:07.444Z,8.41
2023-04-27T05:18:36.185Z,8.52
2023-04-27T05:21:05.333Z,8.45
2023-04-27T05:23:34.177Z,8.51
2023-04-27T05:26:02.597Z,8.56
2023-04-27T05:28:30.894Z,8.56
2023-04-27T05:30:58.304Z,8.63
2023-04-27T05:33:27.592Z,8.66
2023-04-27T05:35:55.110Z,8.63
2023-04-27T05:38:22.848Z,8.58
2023-04-27T05:40:59.975Z,8.59
2023-04-27T05:43:27.895Z,8.62
2023-04-27T05:45:56.435Z,8.60
2023-04-27T05:48:23.593Z,8.53
2023-04-27T05:50:58.978Z,8.35
2023-04-27T05:53:27.303Z,8.37
2023-04-27T05:55:54.483Z,8.29
2023-04-27T05:58:21.864Z,8.30
2023-04-27T06:00:48.638Z,8.34
2023-04-27T06:03:16.039Z,8.31
2023-04-27T06:05:43.699Z,8.28
2023-04-27T06:08:12.370Z,8.24
2023-04-27T06:10:39.748Z,8.28
2023-04-27T06:13:06.981Z,8.38
2023-04-27T06:15:34.354Z,8.47
2023-04-27T06:18:01.688Z,8.47
2023-04-27T06:20:29.482Z,8.54
2023-04-27T06:22:58.298Z,8.45
2023-04-27T06:25:27.224Z,8.49
2023-04-27T06:27:59.209Z,8.47
2023-04-27T06:30:28.870Z,8.45
2023-04-27T06:32:56.424Z,8.51
2023-04-27T06:35:24.803Z,8.61
2023-04-27T06:37:52.156Z,8.78
2023-04-27T06:40:21.914Z,8.97
2023-04-27T06:42:48.764Z,9.15
2023-04-27T06:45:16.543Z,9.16
2023-04-27T06:47:43.470Z,9.28
2023-04-27T06:50:12.200Z,9.25
2023-04-27T06:52:40.139Z,9.32
2023-04-27T06:55:08.025Z,9.29
2023-04-27T06:57:35.526Z,9.30
2023-04-27T07:00:04.916Z,9.36
2023-04-27T07:02:32.626Z,9.41
2023-04-27T07:04:59.920Z,9.42
2023-04-27T07:07:27.287Z,9.55
2023-04-27T07:09:54.804Z,9.68
2023-04-27T07:12:22.175Z,9.81
2023-04-27T07:14:51.416Z,9.90
2023-04-27T07:17:18.869Z,10.03
2023-04-27T07:19:45.950Z,10.11
2023-04-27T07:22:13.185Z,10.13
2023-04-27T07:24:40.416Z,10.05
2023-04-27T07:27:08.661Z,10.10
2023-04-27T07:29:56.110Z,10.18
2023-04-27T07:32:42.076Z,10.17
2023-04-27T07:35:13.807Z,10.06
2023-04-27T07:37:41.880Z,10.04
2023-04-27T07:40:14.882Z,9.94
2023-04-27T07:42:43.171Z,10.02
2023-04-27T07:45:10.862Z,9.97
2023-04-27T07:47:39.899Z,9.95
2023-04-27T07:50:08.819Z,9.94
2023-04-27T07:52:37.574Z,10.07
2023-04-27T07:55:05.432Z,10.14
2023-04-27T07:57:32.578Z,10.37
2023-04-27T07:59:59.906Z,10.50
2023-04-27T08:02:32.173Z,10.52
2023-04-27T08:04:59.745Z,10.43
2023-04-27T08:07:28.098Z,10.46
2023-04-27T08:09:55.269Z,10.39
2023-04-27T08:12:22.680Z,10.33
2023-04-27T08:14:50.089Z,10.29
2023-04-27T08:17:18.816Z,10.17
2023-04-27T08:19:46.636Z,10.10
2023-04-27T08:22:14.920Z,10.10
2023-04-27T08:24:42.761Z,9.91
2023-04-27T08:27:10.585Z,9.82
2023-04-27T08:29:37.463Z,9.80
2023-04-27T08:32:05.699Z,9.64
2023-04-27T08:34:32.846Z,9.65
2023-04-27T08:37:00.884Z,9.84
2023-04-27T08:39:28.714Z,9.82
2023-04-27T08:41:55.948Z,9.88
2023-04-27T08:44:23.499Z,10.02
2023-04-27T08:46:51.959Z,9.92
2023-04-27T08:49:20.046Z,9.88
2023-04-27T08:51:47.315Z,9.91
2023-04-27T08:54:14.644Z,10.01
2023-04-27T08:56:42.908Z,10.13
2023-04-27T08:59:17.782Z,10.13
2023-04-27T09:01:49.657Z,10.27
2023-04-27T09:04:18.112Z,10.41
2023-04-27T09:06:45.676Z,10.31
2023-04-27T09:09:22.987Z,10.47
2023-04-27T09:11:50.762Z,10.54
2023-04-27T09:14:20.178Z,10.53
2023-04-27T09:16:58.054Z,10.63
2023-04-27T09:19:30.016Z,10.62
2023-04-27T09:22:09.138Z,10.46
2023-04-27T09:24:36.275Z,10.21
2023-04-27T09:27:03.645Z,10.19
2023-04-27T09:29:38.276Z,9.98
2023-04-27T09:32:17.583Z,9.82
2023-04-27T09:34:45.729Z,9.75
2023-04-27T09:37:14.530Z,9.79
2023-04-27T09:39:43.284Z,9.75
2023-04-27T09:42:13.752Z,9.65
2023-04-27T09:44:41.476Z,9.76
2023-04-27T09:47:11.056Z,9.72
2023-04-27T09:49:39.021Z,9.73
2023-04-27T09:52:06.368Z,9.77
2023-04-27T09:54:36.173Z,9.74
2023-04-27T09:57:12.168Z,9.77
2023-04-27T09:59:56.183Z,9.77
2023-04-27T10:02:25.986Z,9.72
2023-04-27T10:05:11.958Z,9.47
2023-04-27T10:07:41.401Z,9.53
2023-04-27T10:10:20.749Z,9.46
2023-04-27T10:13:04.051Z,9.49
2023-04-27T10:15:31.204Z,9.51
2023-04-27T10:18:06.161Z,9.56
2023-04-27T10:20:37.167Z,9.62
2023-04-27T10:23:04.881Z,9.78
2023-04-27T10:25:42.074Z,9.83
2023-04-27T10:28:17.707Z,9.73
2023-04-27T10:30:47.297Z,9.87
2023-04-27T10:33:19.695Z,9.93
2023-04-27T10:35:56.961Z,10.02
2023-04-27T10:38:29.807Z,9.95
2023-04-27T10:41:02.441Z,9.97
2023-04-27T10:43:30.932Z,10.03
2023-04-27T10:46:12.539Z,9.94
2023-04-27T10:48:41.195Z,10.05
2023-04-27T10:51:08.212Z,10.01
2023-04-27T10:53:39.134Z,10.06
2023-04-27T10:56:07.354Z,10.21
2023-04-27T10:58:48.114Z,10.28
2023-04-27T11:01:27.261Z,10.38
2023-04-27T11:03:59.248Z,10.39
2023-04-27T11:06:28.507Z,10.46
2023-04-27T11:08:56.453Z,10.38
2023-04-27T11:11:24.511Z,10.36
2023-04-27T11:13:55.836Z,10.19
2023-04-27T11:16:23.941Z,9.98
2023-04-27T11:18:51.228Z,9.94
2023-04-27T11:21:20.867Z,9.81
2023-04-27T11:23:48.071Z,9.86
2023-04-27T11:26:20.162Z,9.79
2023-04-27T11:29:14.576Z,9.75
2023-04-27T11:31:51.115Z,9.80
2023-04-27T11:34:23.809Z,9.80
2023-04-27T11:37:17.438Z,9.79
2023-04-27T11:39:46.620Z,9.76
2023-04-27T11:42:18.230Z,9.65
2023-04-27T11:44:58.838Z,9.64
2023-04-27T11:47:30.873Z,9.55
2023-04-27T11:49:59.905Z,9.46
2023-04-27T11:52:30.668Z,9.17
2023-04-27T11:54:58.478Z,9.32
2023-04-27T11:57:29.760Z,9.38
2023-04-27T12:00:01.985Z,9.30
2023-04-27T12:02:42.873Z,9.32
2023-04-27T12:05:12.949Z,9.18
2023-04-27T12:07:41.585Z,9.04
2023-04-27T12:10:09.465Z,9.11
2023-04-27T12:12:37.290Z,9.14
2023-04-27T12:15:05.473Z,9.29
2023-04-27T12:17:33.213Z,9.46
2023-04-27T12:20:00.814Z,9.76
2023-04-27T12:22:29.195Z,10.02
2023-04-27T12:24:57.044Z,10.29
2023-04-27T12:27:24.245Z,10.47
2023-04-27T12:29:52.709Z,10.36
2023-04-27T12:32:20.563Z,10.37
2023-04-27T12:34:51.252Z,10.39
2023-04-27T12:37:19.306Z,10.46
2023-04-27T12:39:48.585Z,10.51
2023-04-27T12:42:18.206Z,10.65
2023-04-27T12:44:48.771Z,10.80
2023-04-27T12:47:34.552Z,10.88
2023-04-27T12:50:03.875Z,10.94
2023-04-27T12:52:31.455Z,11.07
2023-04-27T12:54:59.587Z,11.13
2023-04-27T12:57:26.967Z,11.20
2023-04-27T12:59:55.385Z,11.24
2023-04-27T13:02:22.406Z,11.08
2023-04-27T13:04:49.864Z,11.09
2023-04-27T13:07:17.464Z,11.23
2023-04-27T13:09:45.253Z,11.31
2023-04-27T13:12:14.609Z,11.32
2023-04-27T13:14:43.459Z,11.43
2023-04-27T13:17:10.930Z,11.57
2023-04-27T13:19:37.870Z,11.57
2023-04-27T13:22:05.647Z,11.55
2023-04-27T13:24:33.008Z,11.50
2023-04-27T13:27:01.839Z,11.48
2023-04-27T13:29:29.775Z,11.16
2023-04-27T13:31:57.271Z,11.16
2023-04-27T13:34:25.287Z,11.12
2023-04-27T13:36:52.700Z,11.09
2023-04-27T13:39:22.409Z,11.11
2023-04-27T13:41:49.563Z,11.13
2023-04-27T13:44:16.822Z,11.19
2023-04-27T13:46:43.828Z,11.37
2023-04-27T13:49:11.904Z,11.57
2023-04-27T13:51:42.314Z,11.80
2023-04-27T13:54:09.836Z,11.96
2023-04-27T13:56:38.334Z,11.96
2023-04-27T13:59:06.154Z,11.85
2023-04-27T14:01:33.961Z,11.92
2023-04-27T14:04:02.326Z,11.77
2023-04-27T14:06:29.802Z,11.55
2023-04-27T14:08:57.038Z,11.44
2023-04-27T14:11:25.632Z,11.43
2023-04-27T14:13:52.968Z,11.38
2023-04-27T14:16:21.234Z,11.42
2023-04-27T14:18:48.657Z,11.54
2023-04-27T14:21:16.209Z,11.48
2023-04-27T14:23:43.930Z,11.54
2023-04-27T14:26:11.337Z,11.46
2023-04-27T14:28:38.600Z,11.38
2023-04-27T14:31:06.295Z,11.30
2023-04-27T14:33:33.862Z,11.07
2023-04-27T14:36:01.436Z,10.94
2023-04-27T14:38:28.473Z,10.94
2023-04-27T14:40:56.424Z,10.92
2023-04-27T14:43:23.577Z,10.88
2023-04-27T14:45:54.232Z,10.83
2023-04-27T14:48:24.397Z,10.84
2023-04-27T14:50:53.227Z,10.87
2023-04-27T14:53:22.281Z,10.88
2023-04-27T14:55:49.744Z,10.87
2023-04-27T14:58:17.210Z,10.88
2023-04-27T15:00:44.619Z,10.83
2023-04-27T15:03:12.226Z,10.78
2023-04-27T15:05:41.985Z,10.87
2023-04-27T15:08:09.302Z,10.88
2023-04-27T15:10:36.501Z,10.96
2023-04-27T15:13:04.019Z,10.96
2023-04-27T15:15:31.377Z,10.99
2023-04-27T15:17:59.536Z,11.04
2023-04-27T15:20:26.994Z,11.02
2023-04-27T15:22:54.432Z,11.04
2023-04-27T15:25:21.763Z,11.04
2023-04-27T15:27:49.871Z,10.98
2023-04-27T15:30:17.122Z,10.90
2023-04-27T15:32:44.465Z,10.80
2023-04-27T15:35:12.093Z,10.80
2023-04-27T15:37:39.752Z,10.82
2023-04-27T15:40:10.789Z,10.88
2023-04-27T15:42:38.068Z,10.84
2023-04-27T15:45:09.296Z,10.83
2023-04-27T15:47:43.290Z,10.86
2023-04-27T15:50:11.055Z,10.79
2023-04-27T15:52:38.147Z,10.81
2023-04-27T15:55:06.691Z,10.69
2023-04-27T15:57:33.951Z,10.69
2023-04-27T16:00:02.267Z,10.52
2023-04-27T16:02:38.426Z,10.53
2023-04-27T16:05:07.589Z,10.52
2023-04-27T16:07:40.132Z,10.46
2023-04-27T16:10:08.424Z,10.40
2023-04-27T16:12:35.792Z,10.43
2023-04-27T16:15:03.792Z,10.36
2023-04-27T16:17:33.763Z,10.39
2023-04-27T16:20:01.151Z,10.31
2023-04-27T16:22:29.095Z,10.19
2023-04-27T16:24:56.326Z,10.21
2023-04-27T16:27:24.029Z,10.24
2023-04-27T16:29:53.797Z,10.18
2023-04-27T16:32:21.922Z,10.14
2023-04-27T16:34:49.323Z,10.11
2023-04-27T16:37:16.323Z,10.04
2023-04-27T16:39:43.750Z,10.04
2023-04-27T16:42:13.353Z,10.02
2023-04-27T16:44:40.641Z,9.99
2023-04-27T16:47:08.106Z,9.97
2023-04-27T16:49:35.813Z,9.93
2023-04-27T16:52:03.997Z,9.92
2023-04-27T16:54:31.603Z,9.90
2023-04-27T16:57:01.918Z,9.84
2023-04-27T16:59:30.492Z,9.85
2023-04-27T17:02:12.397Z,9.81
2023-04-27T17:04:49.115Z,9.76
2023-04-27T17:07:16.914Z,9.72
2023-04-27T17:09:44.725Z,9.67
2023-04-27T17:12:14.663Z,9.68
2023-04-27T17:14:42.973Z,9.64
2023-04-27T17:17:11.871Z,9.61
2023-04-27T17:19:41.459Z,9.52
2023-04-27T17:22:13.413Z,9.51
2023-04-27T17:24:40.998Z,9.45
2023-04-27T17:27:07.896Z,9.44
2023-04-27T17:29:36.198Z,9.37
2023-04-27T17:32:04.782Z,9.34
2023-04-27T17:34:33.059Z,9.32
2023-04-27T17:37:00.304Z,9.28
2023-04-27T17:39:28.537Z,9.26
2023-04-27T17:41:56.882Z,9.21
2023-04-27T17:44:23.979Z,9.16
2023-04-27T17:46:52.383Z,9.13
2023-04-27T17:49:19.920Z,9.08
2023-04-27T17:51:47.622Z,9.05
2023-04-27T17:54:15.540Z,9.01
2023-04-27T17:56:43.325Z,9.00
2023-04-27T17:59:10.468Z,8.97
2023-04-27T18:01:37.953Z,8.89
2023-04-27T18:04:07.404Z,8.86
2023-04-27T18:06:34.535Z,8.86
2023-04-27T18:09:02.134Z,8.84
2023-04-27T18:11:30.352Z,8.80
2023-04-27T18:13:58.595Z,8.81
2023-04-27T18:16:26.022Z,8.81
2023-04-27T18:18:53.424Z,8.79
2023-04-27T18:21:20.478Z,8.80
2023-04-27T18:23:48.127Z,8.81
2023-04-27T18:26:15.290Z,8.79
2023-04-27T18:28:42.376Z,8.77
2023-04-27T18:31:19.306Z,8.77
2023-04-27T18:33:47.537Z,8.75
2023-04-27T18:36:21.064Z,8.76
2023-04-27T18:38:52.657Z,8.75
2023-04-27T18:41:26.509Z,8.74
2023-04-27T18:44:06.243Z,8.73
2023-04-27T18:46:37.178Z,8.72
2023-04-27T18:49:05.304Z,8.71
2023-04-27T18:51:33.201Z,8.70
2023-04-27T18:54:00.572Z,8.69
2023-04-27T18:56:27.965Z,8.69
2023-04-27T18:58:56.332Z,8.68
2023-04-27T19:01:28.608Z,8.67
2023-04-27T19:03:57.102Z,8.67
2023-04-27T19:06:27.714Z,8.66
2023-04-27T19:08:54.965Z,8.66
2023-04-27T19:11:31.992Z,8.65
2023-04-27T19:14:01.418Z,8.64
2023-04-27T19:16:29.143Z,8.62
2023-04-27T19:18:57.060Z,8.61
2023-04-27T19:21:24.390Z,8.58
2023-04-27T19:23:54.017Z,8.57
2023-04-27T19:26:22.029Z,8.56
2023-04-27T19:28:50.919Z,8.54
2023-04-27T19:31:19.641Z,8.52
2023-04-27T19:36:22.192Z,8.48
2023-04-27T19:38:49.633Z,8.49
2023-04-27T19:41:17.862Z,8.52
2023-04-27T19:43:45.073Z,8.51
2023-04-27T19:46:12.096Z,8.54
2023-04-27T19:48:39.050Z,8.53
2023-04-27T19:51:09.355Z,8.54
2023-04-27T19:53:38.037Z,8.55
2023-04-27T19:56:05.545Z,8.54
2023-04-27T19:58:32.742Z,8.57
2023-04-27T20:00:59.843Z,8.56
2023-04-27T20:03:27.523Z,8.57
2023-04-27T20:05:55.036Z,8.57
2023-04-27T20:08:22.337Z,8.60
2023-04-27T20:10:49.834Z,8.58
2023-04-27T20:13:17.354Z,8.56
2023-04-27T20:15:44.818Z,8.60
2023-04-27T20:18:12.437Z,8.56
2023-04-27T20:20:42.078Z,8.63
2023-04-27T20:23:09.777Z,8.64
2023-04-27T20:25:37.156Z,8.64
2023-04-27T20:28:04.710Z,8.65
2023-04-27T20:30:31.729Z,8.65
2023-04-27T20:32:59.525Z,8.63
2023-04-27T20:35:27.773Z,8.68
2023-04-27T20:37:55.335Z,8.68
2023-04-27T20:40:23.248Z,8.69
2023-04-27T20:42:50.615Z,8.70
2023-04-27T20:45:18.101Z,8.68
2023-04-27T20:47:46.013Z,8.72
2023-04-27T20:50:13.093Z,8.65
2023-04-27T20:52:41.338Z,8.67
2023-04-27T20:55:08.620Z,8.65
2023-04-27T20:57:36.436Z,8.72
2023-04-27T21:00:06.573Z,8.70
2023-04-27T21:02:33.903Z,8.71
2023-04-27T21:05:02.009Z,8.70
2023-04-27T21:07:29.441Z,8.72
2023-04-27T21:09:56.610Z,8.69
2023-04-27T21:12:23.998Z,8.68
2023-04-27T21:14:51.240Z,8.67
2023-04-27T21:17:18.487Z,8.66
2023-04-27T21:19:45.716Z,8.67
2023-04-27T21:22:13.356Z,8.66
2023-04-27T21:24:40.380Z,8.61
2023-04-27T21:27:07.893Z,8.67
2023-04-27T21:29:38.844Z,8.62
2023-04-27T21:32:05.790Z,8.62
2023-04-27T21:34:34.558Z,8.66
2023-04-27T21:37:02.102Z,8.64
2023-04-27T21:39:29.755Z,8.63
2023-04-27T21:41:57.204Z,8.61
2023-04-27T21:44:24.380Z,8.58
2023-04-27T21:46:52.158Z,8.58
2023-04-27T21:49:19.857Z,8.56
2023-04-27T21:51:47.755Z,8.51
2023-04-27T21:54:15.129Z,8.53
2023-04-27T21:56:43.076Z,8.50
2023-04-27T21:59:10.617Z,8.49
2023-04-27T22:01:38.042Z,8.50
2023-04-27T22:04:06.634Z,8.47
2023-04-27T22:06:33.940Z,8.48
2023-04-27T22:09:01.162Z,8.46
2023-04-27T22:11:28.338Z,8.43
2023-04-27T22:13:56.434Z,8.43
2023-04-27T22:16:24.075Z,8.39
2023-04-27T22:18:51.112Z,8.38
2023-04-27T22:21:17.843Z,8.31
2023-04-27T22:23:45.049Z,8.34
2023-04-27T22:26:12.258Z,8.35
2023-04-27T22:28:39.913Z,8.36
2023-04-27T22:31:07.938Z,8.35
2023-04-27T22:33:36.897Z,8.30
2023-04-27T22:36:04.057Z,8.32
2023-04-27T22:38:33.944Z,8.27
2023-04-27T22:41:01.188Z,8.26
2023-04-27T22:43:28.135Z,8.21
2023-04-27T22:45:55.886Z,8.19
2023-04-27T22:48:23.349Z,8.15
2023-04-27T22:50:51.420Z,8.20
2023-04-27T22:53:18.843Z,8.16
2023-04-27T22:55:46.218Z,8.12
2023-04-27T22:58:13.454Z,8.07
2023-04-27T23:00:40.588Z,8.09
2023-04-27T23:03:07.480Z,8.08
2023-04-27T23:05:34.926Z,8.03
2023-04-27T23:08:03.380Z,8.00
2023-04-27T23:10:31.425Z,7.98
2023-04-27T23:12:58.673Z,7.96
2023-04-27T23:15:25.963Z,7.93
2023-04-27T23:17:52.913Z,7.97
2023-04-27T23:20:28.049Z,7.93
2023-04-27T23:22:56.491Z,7.92
2023-04-27T23:25:23.708Z,7.98
2023-04-27T23:27:52.518Z,7.94
2023-04-27T23:30:23.764Z,7.92
2023-04-27T23:32:51.126Z,7.89
2023-04-27T23:35:20.736Z,7.89
2023-04-27T23:37:52.848Z,7.93
2023-04-27T23:40:20.956Z,7.93
2023-04-27T23:42:50.935Z,7.86
2023-04-27T23:45:25.458Z,7.83
2023-04-27T23:47:56.705Z,7.82
2023-04-27T23:50:33.995Z,7.80
2023-04-27T23:53:03.979Z,7.72
2023-04-27T23:55:35.052Z,7.72
2023-04-27T23:58:04.606Z,7.76
